SAS2122 ESSA-EFHK
Flight info
| Callsign | SAS2122 |
|---|---|
| Flight time | 0h 50m |
| Altitude | 31000 |
| Route | TOVRI N851 RIKUM DCT RIRIP Y364 LAKUT |
| Aircraft | A320/M-SDE3FGHIRWY/LB1 |
Departure
| Time | 2026-04-22 16:25 |
|---|---|
| Airport | Stockholm-Arlanda Airport (ESSA) |
Arrival
| Time | 2026-04-22 17:15 |
|---|---|
| Airport | Helsinki Vantaa Airport (EFHK) |
| Time | Latitude | Longitude | Altitude | Speed | Heading |
|---|---|---|---|---|---|
| 2026-04-22 16:06 | 59.64368 | 17.92805 | 138 ft | 0 kts | 43° |
| 2026-04-22 16:16 | 59.64361 | 17.92792 | 137 ft | 4 kts | 39° |
| 2026-04-22 16:16 | 59.64339 | 17.92762 | 137 ft | 4 kts | 25° |
| 2026-04-22 16:17 | 59.64314 | 17.92744 | 137 ft | 4 kts | 10° |
| 2026-04-22 16:17 | 59.64287 | 17.92740 | 137 ft | 4 kts | 356° |
| 2026-04-22 16:17 | 59.64261 | 17.92748 | 137 ft | 4 kts | 343° |
| 2026-04-22 16:17 | 59.64236 | 17.92767 | 137 ft | 4 kts | 329° |
| 2026-04-22 16:18 | 59.64215 | 17.92798 | 137 ft | 4 kts | 309° |
| 2026-04-22 16:18 | 59.64208 | 17.92820 | 137 ft | 0 kts | 294° |
| 2026-04-22 16:20 | 59.64211 | 17.92803 | 137 ft | 7 kts | 294° |
| 2026-04-22 16:20 | 59.64236 | 17.92697 | 137 ft | 21 kts | 295° |
| 2026-04-22 16:20 | 59.64298 | 17.92457 | 137 ft | 23 kts | 298° |
| 2026-04-22 16:21 | 59.64355 | 17.92239 | 138 ft | 18 kts | 297° |
| 2026-04-22 16:21 | 59.64372 | 17.92176 | 138 ft | 15 kts | 297° |
| 2026-04-22 16:21 | 59.64373 | 17.92169 | 138 ft | 15 kts | 297° |
| 2026-04-22 16:22 | 59.64392 | 17.92110 | 138 ft | 6 kts | 298° |
| 2026-04-22 16:22 | 59.64385 | 17.91925 | 138 ft | 18 kts | 197° |
| 2026-04-22 16:22 | 59.64252 | 17.91874 | 138 ft | 21 kts | 193° |
| 2026-04-22 16:23 | 59.63951 | 17.91767 | 138 ft | 22 kts | 191° |
| 2026-04-22 16:23 | 59.63827 | 17.91677 | 138 ft | 18 kts | 215° |
| 2026-04-22 16:23 | 59.63738 | 17.91520 | 140 ft | 13 kts | 238° |
| 2026-04-22 16:24 | 59.63745 | 17.91384 | 147 ft | 8 kts | 311° |
| 2026-04-22 16:24 | 59.64025 | 17.91429 | 143 ft | 66 kts | 11° |
| 2026-04-22 16:24 | 59.64688 | 17.91669 | 146 ft | 124 kts | 10° |
| 2026-04-22 16:25 | 59.65680 | 17.92004 | 306 ft | 153 kts | 6° |
| 2026-04-22 16:25 | 59.67829 | 17.92930 | 1322 ft | 178 kts | 9° |
| 2026-04-22 16:25 | 59.69064 | 17.93485 | 2004 ft | 185 kts | 8° |
| 2026-04-22 16:26 | 59.70368 | 17.94006 | 2686 ft | 194 kts | 6° |
| 2026-04-22 16:26 | 59.71714 | 17.94454 | 3486 ft | 199 kts | 7° |
| 2026-04-22 16:26 | 59.72994 | 17.95580 | 4262 ft | 210 kts | 35° |
| 2026-04-22 16:26 | 59.73686 | 17.97323 | 4904 ft | 223 kts | 58° |
| 2026-04-22 16:27 | 59.74066 | 18.00394 | 5722 ft | 233 kts | 72° |
| 2026-04-22 16:27 | 59.74332 | 18.03575 | 6546 ft | 235 kts | 72° |
| 2026-04-22 16:27 | 59.74597 | 18.06777 | 7342 ft | 236 kts | 71° |
| 2026-04-22 16:27 | 59.74788 | 18.09064 | 7923 ft | 236 kts | 71° |
| 2026-04-22 16:28 | 59.75045 | 18.12081 | 8707 ft | 237 kts | 70° |
| 2026-04-22 16:28 | 59.75275 | 18.15124 | 9495 ft | 242 kts | 75° |
| 2026-04-22 16:28 | 59.75288 | 18.18514 | 10292 ft | 247 kts | 79° |
| 2026-04-22 16:28 | 59.75274 | 18.21933 | 11001 ft | 249 kts | 79° |
| 2026-04-22 16:29 | 59.75262 | 18.25390 | 11726 ft | 252 kts | 80° |
| 2026-04-22 16:29 | 59.75251 | 18.28880 | 12453 ft | 254 kts | 80° |
| 2026-04-22 16:29 | 59.75238 | 18.32405 | 13190 ft | 257 kts | 81° |
| 2026-04-22 16:29 | 59.75228 | 18.36018 | 13680 ft | 272 kts | 81° |
| 2026-04-22 16:30 | 59.75225 | 18.38623 | 13823 ft | 287 kts | 82° |
| 2026-04-22 16:30 | 59.75218 | 18.44159 | 14057 ft | 318 kts | 82° |
| 2026-04-22 16:30 | 59.75205 | 18.48714 | 14179 ft | 341 kts | 82° |
| 2026-04-22 16:30 | 59.75179 | 18.53526 | 14507 ft | 353 kts | 83° |
| 2026-04-22 16:31 | 59.75133 | 18.58423 | 15068 ft | 357 kts | 83° |
| 2026-04-22 16:31 | 59.75084 | 18.63370 | 15659 ft | 360 kts | 83° |
| 2026-04-22 16:31 | 59.75041 | 18.68362 | 16286 ft | 363 kts | 82° |
| 2026-04-22 16:31 | 59.75269 | 18.73299 | 16898 ft | 357 kts | 72° |
| 2026-04-22 16:32 | 59.75935 | 18.77999 | 17518 ft | 352 kts | 62° |
| 2026-04-22 16:32 | 59.76995 | 18.82342 | 18174 ft | 348 kts | 53° |
| 2026-04-22 16:32 | 59.78347 | 18.86301 | 18797 ft | 346 kts | 49° |
| 2026-04-22 16:32 | 59.79724 | 18.90229 | 19414 ft | 348 kts | 50° |
| 2026-04-22 16:33 | 59.81103 | 18.94197 | 20044 ft | 349 kts | 50° |
| 2026-04-22 16:33 | 59.82475 | 18.98164 | 20716 ft | 348 kts | 50° |
| 2026-04-22 16:33 | 59.83841 | 19.02131 | 21419 ft | 346 kts | 50° |
| 2026-04-22 16:33 | 59.85193 | 19.06062 | 22137 ft | 343 kts | 50° |
| 2026-04-22 16:34 | 59.86531 | 19.09959 | 22894 ft | 339 kts | 50° |
| 2026-04-22 16:34 | 59.87847 | 19.13801 | 23687 ft | 333 kts | 50° |
| 2026-04-22 16:34 | 59.89123 | 19.17521 | 24371 ft | 326 kts | 50° |
| 2026-04-22 16:34 | 59.90389 | 19.21215 | 25073 ft | 319 kts | 49° |
| 2026-04-22 16:35 | 59.91624 | 19.24819 | 25799 ft | 311 kts | 49° |
| 2026-04-22 16:35 | 59.92822 | 19.28323 | 26550 ft | 301 kts | 49° |
| 2026-04-22 16:35 | 59.94003 | 19.31776 | 27039 ft | 301 kts | 49° |
| 2026-04-22 16:35 | 59.95180 | 19.35216 | 27503 ft | 300 kts | 49° |
| 2026-04-22 16:36 | 59.96303 | 19.38737 | 27973 ft | 302 kts | 54° |
| 2026-04-22 16:36 | 59.97194 | 19.42563 | 28450 ft | 306 kts | 62° |
| 2026-04-22 16:36 | 59.97814 | 19.46661 | 28939 ft | 310 kts | 68° |
| 2026-04-22 16:36 | 59.98315 | 19.50831 | 29440 ft | 308 kts | 68° |
| 2026-04-22 16:37 | 59.98819 | 19.54996 | 29783 ft | 311 kts | 68° |
| 2026-04-22 16:37 | 59.99335 | 19.59226 | 30020 ft | 316 kts | 68° |
| 2026-04-22 16:37 | 59.99861 | 19.63528 | 30246 ft | 321 kts | 68° |
| 2026-04-22 16:37 | 60.00392 | 19.67886 | 30493 ft | 325 kts | 68° |
| 2026-04-22 16:38 | 60.00927 | 19.72305 | 30724 ft | 329 kts | 68° |
| 2026-04-22 16:38 | 60.01469 | 19.76791 | 30920 ft | 336 kts | 68° |
| 2026-04-22 16:38 | 60.02025 | 19.81406 | 30972 ft | 347 kts | 68° |
| 2026-04-22 16:38 | 60.02600 | 19.86180 | 30977 ft | 360 kts | 69° |
| 2026-04-22 16:39 | 60.03194 | 19.91133 | 30977 ft | 372 kts | 69° |
| 2026-04-22 16:39 | 60.03806 | 19.96254 | 30977 ft | 384 kts | 69° |
| 2026-04-22 16:39 | 60.04434 | 20.01538 | 30972 ft | 396 kts | 69° |
| 2026-04-22 16:39 | 60.05070 | 20.06958 | 30972 ft | 404 kts | 70° |
| 2026-04-22 16:40 | 60.06333 | 20.17915 | 30977 ft | 408 kts | 70° |
| 2026-04-22 16:41 | 60.08244 | 20.34527 | 31000 ft | 408 kts | 69° |
| 2026-04-22 16:41 | 60.09517 | 20.45623 | 30968 ft | 408 kts | 69° |
| 2026-04-22 16:42 | 60.10778 | 20.56713 | 30958 ft | 409 kts | 70° |
| 2026-04-22 16:42 | 60.12026 | 20.67829 | 30952 ft | 409 kts | 70° |
| 2026-04-22 16:43 | 60.13271 | 20.78959 | 30950 ft | 409 kts | 70° |
| 2026-04-22 16:43 | 60.14509 | 20.90099 | 30950 ft | 409 kts | 70° |
| 2026-04-22 16:44 | 60.15738 | 21.01246 | 30944 ft | 409 kts | 70° |
| 2026-04-22 16:44 | 60.16947 | 21.12328 | 30942 ft | 409 kts | 70° |
| 2026-04-22 16:45 | 60.18154 | 21.23490 | 30941 ft | 409 kts | 70° |
| 2026-04-22 16:45 | 60.19351 | 21.34668 | 30928 ft | 409 kts | 70° |
| 2026-04-22 16:46 | 60.20538 | 21.45844 | 30930 ft | 409 kts | 69° |
| 2026-04-22 16:46 | 60.21730 | 21.57043 | 30928 ft | 409 kts | 69° |
| 2026-04-22 16:47 | 60.22900 | 21.68252 | 30917 ft | 409 kts | 70° |
| 2026-04-22 16:47 | 60.23871 | 21.77583 | 30917 ft | 409 kts | 70° |
| 2026-04-22 16:48 | 60.25031 | 21.88800 | 30911 ft | 409 kts | 70° |
| 2026-04-22 16:48 | 60.26361 | 22.01852 | 30896 ft | 409 kts | 69° |
| 2026-04-22 16:49 | 60.27492 | 22.13084 | 30887 ft | 409 kts | 70° |
| 2026-04-22 16:49 | 60.28615 | 22.24327 | 30873 ft | 409 kts | 70° |
| 2026-04-22 16:50 | 60.29740 | 22.35598 | 30866 ft | 410 kts | 70° |
| 2026-04-22 16:50 | 60.30293 | 22.41198 | 30605 ft | 405 kts | 70° |
| 2026-04-22 16:50 | 60.30836 | 22.46745 | 30120 ft | 401 kts | 70° |
| 2026-04-22 16:50 | 60.31372 | 22.52236 | 29609 ft | 398 kts | 69° |
| 2026-04-22 16:51 | 60.31894 | 22.57645 | 29051 ft | 395 kts | 69° |
| 2026-04-22 16:51 | 60.32422 | 22.63139 | 28481 ft | 392 kts | 69° |
| 2026-04-22 16:51 | 60.32936 | 22.68461 | 27951 ft | 390 kts | 69° |
| 2026-04-22 16:51 | 60.33452 | 22.73817 | 27475 ft | 388 kts | 69° |
| 2026-04-22 16:52 | 60.33964 | 22.79161 | 26955 ft | 387 kts | 69° |
| 2026-04-22 16:52 | 60.34473 | 22.84487 | 26464 ft | 385 kts | 69° |
| 2026-04-22 16:52 | 60.34975 | 22.89788 | 25983 ft | 384 kts | 69° |
| 2026-04-22 16:52 | 60.35472 | 22.95083 | 25533 ft | 383 kts | 69° |
| 2026-04-22 16:53 | 60.35964 | 23.00364 | 25099 ft | 382 kts | 69° |
| 2026-04-22 16:53 | 60.36453 | 23.05628 | 24681 ft | 381 kts | 69° |
| 2026-04-22 16:53 | 60.36941 | 23.10878 | 24264 ft | 379 kts | 69° |
| 2026-04-22 16:53 | 60.37425 | 23.16108 | 23848 ft | 378 kts | 69° |
| 2026-04-22 16:54 | 60.37905 | 23.21326 | 23405 ft | 378 kts | 69° |
| 2026-04-22 16:54 | 60.38380 | 23.26544 | 22915 ft | 376 kts | 69° |
| 2026-04-22 16:54 | 60.38848 | 23.31732 | 22451 ft | 374 kts | 69° |
| 2026-04-22 16:54 | 60.39313 | 23.36883 | 22008 ft | 371 kts | 69° |
| 2026-04-22 16:55 | 60.39773 | 23.41992 | 21557 ft | 368 kts | 69° |
| 2026-04-22 16:55 | 60.40230 | 23.47073 | 21101 ft | 366 kts | 69° |
| 2026-04-22 16:55 | 60.40683 | 23.52115 | 20646 ft | 363 kts | 69° |
| 2026-04-22 16:55 | 60.40974 | 23.55436 | 20377 ft | 364 kts | 70° |
| 2026-04-22 16:56 | 60.40892 | 23.61639 | 19850 ft | 389 kts | 93° |
| 2026-04-22 16:56 | 60.40025 | 23.66908 | 19392 ft | 396 kts | 100° |
| 2026-04-22 16:56 | 60.39056 | 23.72110 | 18941 ft | 395 kts | 101° |
| 2026-04-22 16:56 | 60.38316 | 23.75971 | 18619 ft | 394 kts | 101° |
| 2026-04-22 16:57 | 60.37315 | 23.81122 | 18193 ft | 393 kts | 101° |
| 2026-04-22 16:57 | 60.36315 | 23.86250 | 17729 ft | 391 kts | 101° |
| 2026-04-22 16:57 | 60.35329 | 23.91308 | 17414 ft | 383 kts | 101° |
| 2026-04-22 16:57 | 60.34370 | 23.96238 | 17277 ft | 372 kts | 101° |
| 2026-04-22 16:58 | 60.33752 | 23.99426 | 17180 ft | 365 kts | 101° |
| 2026-04-22 16:58 | 60.32536 | 24.05743 | 16772 ft | 358 kts | 100° |
| 2026-04-22 16:58 | 60.31647 | 24.10400 | 16438 ft | 355 kts | 100° |
| 2026-04-22 16:58 | 60.30761 | 24.15029 | 16091 ft | 352 kts | 100° |
| 2026-04-22 16:59 | 60.29877 | 24.19629 | 15760 ft | 351 kts | 101° |
| 2026-04-22 16:59 | 60.28991 | 24.24215 | 15412 ft | 350 kts | 101° |
| 2026-04-22 16:59 | 60.28116 | 24.28707 | 15066 ft | 348 kts | 101° |
| 2026-04-22 16:59 | 60.27222 | 24.33261 | 14875 ft | 340 kts | 102° |
| 2026-04-22 17:00 | 60.26648 | 24.36168 | 14792 ft | 335 kts | 101° |
| 2026-04-22 17:00 | 60.24966 | 24.44659 | 14355 ft | 324 kts | 101° |
| 2026-04-22 17:00 | 60.24133 | 24.48937 | 13799 ft | 332 kts | 102° |
| 2026-04-22 17:01 | 60.23280 | 24.53318 | 13208 ft | 339 kts | 102° |
| 2026-04-22 17:01 | 60.22120 | 24.59231 | 12401 ft | 346 kts | 103° |
| 2026-04-22 17:01 | 60.21529 | 24.62289 | 11991 ft | 347 kts | 101° |
| 2026-04-22 17:01 | 60.20684 | 24.66859 | 11380 ft | 357 kts | 110° |
| 2026-04-22 17:02 | 60.19133 | 24.70929 | 10670 ft | 376 kts | 134° |
| 2026-04-22 17:02 | 60.17073 | 24.74160 | 9987 ft | 383 kts | 140° |
| 2026-04-22 17:02 | 60.14937 | 24.77285 | 9458 ft | 370 kts | 140° |
| 2026-04-22 17:02 | 60.12930 | 24.80191 | 9290 ft | 341 kts | 140° |
| 2026-04-22 17:03 | 60.11082 | 24.82834 | 9271 ft | 313 kts | 140° |
| 2026-04-22 17:03 | 60.09323 | 24.85200 | 8996 ft | 300 kts | 150° |
| 2026-04-22 17:03 | 60.07334 | 24.86300 | 8533 ft | 297 kts | 179° |
| 2026-04-22 17:03 | 60.05349 | 24.85598 | 8018 ft | 287 kts | 209° |
| 2026-04-22 17:04 | 60.03745 | 24.83414 | 7516 ft | 275 kts | 227° |
| 2026-04-22 17:04 | 60.02352 | 24.80822 | 7001 ft | 272 kts | 230° |
| 2026-04-22 17:04 | 60.01003 | 24.78201 | 6531 ft | 268 kts | 230° |
| 2026-04-22 17:04 | 59.99778 | 24.75472 | 6051 ft | 257 kts | 247° |
| 2026-04-22 17:05 | 59.99295 | 24.72228 | 5576 ft | 236 kts | 278° |
| 2026-04-22 17:05 | 59.99693 | 24.69228 | 5065 ft | 218 kts | 305° |
| 2026-04-22 17:05 | 60.00502 | 24.66717 | 4564 ft | 212 kts | 309° |
| 2026-04-22 17:05 | 60.01347 | 24.64339 | 3933 ft | 209 kts | 310° |
| 2026-04-22 17:06 | 60.02161 | 24.62067 | 3722 ft | 194 kts | 310° |
| 2026-04-22 17:06 | 60.02943 | 24.60015 | 3537 ft | 176 kts | 321° |
| 2026-04-22 17:06 | 60.03938 | 24.58846 | 3317 ft | 162 kts | 345° |
| 2026-04-22 17:06 | 60.05051 | 24.58773 | 2929 ft | 164 kts | 7° |
| 2026-04-22 17:07 | 60.06163 | 24.59358 | 2491 ft | 166 kts | 8° |
| 2026-04-22 17:07 | 60.07267 | 24.59942 | 2325 ft | 164 kts | 8° |
| 2026-04-22 17:07 | 60.08387 | 24.60531 | 2318 ft | 167 kts | 8° |
| 2026-04-22 17:07 | 60.09511 | 24.61124 | 2318 ft | 167 kts | 8° |
| 2026-04-22 17:08 | 60.10641 | 24.61716 | 2315 ft | 168 kts | 8° |
| 2026-04-22 17:08 | 60.11753 | 24.62299 | 2311 ft | 168 kts | 9° |
| 2026-04-22 17:08 | 60.12887 | 24.62898 | 2310 ft | 169 kts | 9° |
| 2026-04-22 17:08 | 60.14005 | 24.63492 | 2339 ft | 160 kts | 9° |
| 2026-04-22 17:09 | 60.15025 | 24.64044 | 2314 ft | 144 kts | 8° |
| 2026-04-22 17:09 | 60.15959 | 24.64543 | 2304 ft | 135 kts | 8° |
| 2026-04-22 17:09 | 60.16860 | 24.65016 | 2307 ft | 133 kts | 7° |
| 2026-04-22 17:09 | 60.17723 | 24.65468 | 2306 ft | 132 kts | 6° |
| 2026-04-22 17:10 | 60.18608 | 24.65930 | 2307 ft | 131 kts | 6° |
| 2026-04-22 17:10 | 60.18908 | 24.66087 | 2306 ft | 131 kts | 6° |
| 2026-04-22 17:10 | 60.19363 | 24.66326 | 2307 ft | 131 kts | 6° |
| 2026-04-22 17:10 | 60.20244 | 24.66865 | 2306 ft | 135 kts | 15° |
| 2026-04-22 17:11 | 60.20970 | 24.68136 | 2314 ft | 139 kts | 34° |
| 2026-04-22 17:11 | 60.21632 | 24.69447 | 2308 ft | 133 kts | 33° |
| 2026-04-22 17:11 | 60.22168 | 24.70541 | 2309 ft | 134 kts | 34° |
| 2026-04-22 17:11 | 60.22811 | 24.71891 | 2309 ft | 133 kts | 34° |
| 2026-04-22 17:12 | 60.23445 | 24.73248 | 2308 ft | 133 kts | 36° |
| 2026-04-22 17:12 | 60.24074 | 24.74607 | 2214 ft | 132 kts | 36° |
| 2026-04-22 17:12 | 60.24703 | 24.75971 | 2077 ft | 133 kts | 35° |
| 2026-04-22 17:12 | 60.25333 | 24.77341 | 1907 ft | 133 kts | 35° |
| 2026-04-22 17:13 | 60.25962 | 24.78713 | 1728 ft | 134 kts | 35° |
| 2026-04-22 17:13 | 60.26594 | 24.80092 | 1547 ft | 133 kts | 36° |
| 2026-04-22 17:13 | 60.27219 | 24.81459 | 1365 ft | 133 kts | 37° |
| 2026-04-22 17:13 | 60.27849 | 24.82838 | 1181 ft | 133 kts | 38° |
| 2026-04-22 17:14 | 60.28488 | 24.84230 | 998 ft | 140 kts | 39° |
| 2026-04-22 17:14 | 60.29144 | 24.85668 | 795 ft | 141 kts | 38° |
| 2026-04-22 17:14 | 60.29814 | 24.87137 | 607 ft | 144 kts | 36° |
| 2026-04-22 17:14 | 60.30496 | 24.88635 | 421 ft | 145 kts | 38° |
| 2026-04-22 17:15 | 60.30944 | 24.89612 | 296 ft | 144 kts | 39° |
| 2026-04-22 17:15 | 60.31819 | 24.91523 | 161 ft | 113 kts | 49° |
| 2026-04-22 17:15 | 60.32194 | 24.92338 | 170 ft | 53 kts | 45° |
| 2026-04-22 17:15 | 60.32393 | 24.92831 | 173 ft | 37 kts | 62° |
| 2026-04-22 17:16 | 60.32454 | 24.93182 | 177 ft | 18 kts | 73° |
| 2026-04-22 17:16 | 60.32461 | 24.93252 | 178 ft | 1 kts | 79° |
| 2026-04-22 17:16 | 60.32464 | 24.93280 | 178 ft | 4 kts | 79° |
| 2026-04-22 17:16 | 60.32470 | 24.93349 | 178 ft | 6 kts | 78° |
| 2026-04-22 17:17 | 60.32483 | 24.93456 | 178 ft | 11 kts | 74° |
| 2026-04-22 17:17 | 60.32490 | 24.93516 | 178 ft | 13 kts | 77° |
| 2026-04-22 17:17 | 60.32509 | 24.93709 | 179 ft | 15 kts | 79° |
| 2026-04-22 17:18 | 60.32541 | 24.93922 | 179 ft | 16 kts | 57° |
| 2026-04-22 17:18 | 60.32621 | 24.94102 | 180 ft | 18 kts | 50° |
| 2026-04-22 17:18 | 60.32710 | 24.94295 | 182 ft | 20 kts | 50° |
| 2026-04-22 17:18 | 60.32806 | 24.94513 | 183 ft | 22 kts | 48° |
| 2026-04-22 17:19 | 60.33035 | 24.95016 | 181 ft | 28 kts | 47° |
| 2026-04-22 17:19 | 60.33183 | 24.95560 | 164 ft | 19 kts | 132° |
| 2026-04-22 17:20 | 60.32913 | 24.95954 | 153 ft | 28 kts | 150° |
| 2026-04-22 17:20 | 60.32610 | 24.96306 | 164 ft | 10 kts | 149° |
| 2026-04-22 17:21 | 60.32582 | 24.96339 | 165 ft | 0 kts | 149° |
| 2026-04-22 17:22 | 60.32571 | 24.96352 | 165 ft | 7 kts | 150° |
| 2026-04-22 17:22 | 60.32267 | 24.96707 | 167 ft | 35 kts | 149° |
| 2026-04-22 17:23 | 60.32109 | 24.96884 | 170 ft | 16 kts | 153° |
| 2026-04-22 17:23 | 60.31967 | 24.97009 | 173 ft | 5 kts | 235° |
| 2026-04-22 17:23 | 60.31949 | 24.96935 | 172 ft | 0 kts | 243° |
| 2026-04-22 17:24 | 60.31947 | 24.96925 | 172 ft | 0 kts | 244° |